Terminal Aerodrome Forecast
Issued by NWS

Home | Current Version | Previous Version | Text Only | Print | Product List | Glossary On
Versions: 1 2 3 4 5 6 7 8 9 10 11 12 13 14 15 16 17
000
FTUS45 KGGW 250520
TAFOLF
TAF
KOLF 250520Z 2506/2606 VRB06KT 2SM -SN SCT007 OVC015
     FM250730 VRB06KT P6SM OVC030
     FM251300 31005KT P6SM OVC040
     FM251800 23007KT 6SM -SHSN OVC020
     FM260000 30010KT P6SM BKN025 BKN026
     FM260400 35004KT P6SM BKN010=

USA.gov is the U.S. government's official web portal to all federal, state and local government web resources and services.